createdAt,value
2019-04-28T00:00:25.806Z,8.93
2019-04-28T00:01:25.797Z,8.90
2019-04-28T00:02:25.826Z,8.90
2019-04-28T00:03:25.846Z,8.91
2019-04-28T00:04:25.766Z,8.88
2019-04-28T00:05:25.755Z,8.88
2019-04-28T00:06:25.745Z,8.84
2019-04-28T00:07:25.735Z,8.78
2019-04-28T00:08:25.738Z,8.78
2019-04-28T00:09:25.745Z,8.78
2019-04-28T00:10:25.702Z,8.79
2019-04-28T00:11:25.685Z,8.79
2019-04-28T00:12:25.675Z,8.86
2019-04-28T00:13:25.995Z,8.86
2019-04-28T00:14:25.667Z,8.84
2019-04-28T00:15:25.685Z,8.84
2019-04-28T00:16:25.644Z,8.84
2019-04-28T00:17:25.661Z,8.81
2019-04-28T00:18:25.678Z,8.78
2019-04-28T00:19:25.615Z,8.73
2019-04-28T00:20:25.884Z,8.75
2019-04-28T00:21:26.189Z,8.78
2019-04-28T00:22:25.604Z,8.83
2019-04-28T00:23:25.564Z,8.81
2019-04-28T00:24:25.560Z,8.79
2019-04-28T00:25:25.983Z,8.83
2019-04-28T00:26:25.536Z,8.84
2019-04-28T00:27:25.555Z,8.81
2019-04-28T00:28:25.523Z,8.76
2019-04-28T00:29:37.733Z,8.76
2019-04-28T00:30:26.494Z,8.79
2019-04-28T00:31:25.476Z,8.81
2019-04-28T00:32:25.753Z,8.79
2019-04-28T00:33:26.343Z,8.79
2019-04-28T00:34:25.443Z,8.81
2019-04-28T00:35:25.442Z,8.90
2019-04-28T00:36:25.423Z,8.96
2019-04-28T00:37:25.412Z,9.01
2019-04-28T00:38:25.403Z,9.12
2019-04-28T00:39:25.792Z,9.12
2019-04-28T00:40:25.390Z,9.05
2019-04-28T00:41:25.372Z,9.02
2019-04-28T00:42:26.340Z,8.99
2019-04-28T00:43:25.352Z,8.88
2019-04-28T00:44:25.341Z,8.87
2019-04-28T00:45:25.403Z,8.78
2019-04-28T00:46:25.612Z,8.75
2019-04-28T00:47:25.303Z,8.73
2019-04-28T00:48:25.302Z,8.72
2019-04-28T00:49:25.281Z,8.69
2019-04-28T00:50:25.271Z,8.71
2019-04-28T00:51:25.341Z,8.66
2019-04-28T00:52:25.468Z,8.65
2019-04-28T00:53:25.644Z,8.66
2019-04-28T00:54:25.288Z,8.71
2019-04-28T00:55:25.220Z,8.71
2019-04-28T00:56:25.210Z,8.66
2019-04-28T00:57:25.319Z,8.58
2019-04-28T00:58:25.220Z,8.57
2019-04-28T00:59:25.200Z,8.54
2019-04-28T01:00:25.457Z,8.57
2019-04-28T01:01:25.179Z,8.58
2019-04-28T01:02:26.027Z,8.60
2019-04-28T01:03:25.223Z,8.62
2019-04-28T01:04:25.121Z,8.65
2019-04-28T01:06:43.443Z,8.66
2019-04-28T01:07:42.602Z,8.65
2019-04-28T01:08:42.592Z,8.65
2019-04-28T01:09:42.582Z,8.63
2019-04-28T01:10:42.591Z,8.63
2019-04-28T01:11:42.602Z,8.58
2019-04-28T01:12:42.909Z,8.54
2019-04-28T01:13:42.541Z,8.53
2019-04-28T01:14:43.502Z,8.51
2019-04-28T01:15:42.626Z,8.50
2019-04-28T01:16:42.548Z,8.53
2019-04-28T01:17:42.531Z,8.48
2019-04-28T01:18:42.559Z,8.44
2019-04-28T01:19:42.489Z,8.47
2019-04-28T01:20:42.470Z,8.48
2019-04-28T01:21:42.480Z,8.51
2019-04-28T01:22:42.450Z,8.48
2019-04-28T01:23:42.451Z,8.48
2019-04-28T01:24:42.790Z,8.53
2019-04-28T01:25:42.441Z,8.55
2019-04-28T01:26:42.400Z,8.58
2019-04-28T01:27:42.428Z,8.63
2019-04-28T01:28:42.382Z,8.69
2019-04-28T01:29:42.379Z,8.71
2019-04-28T01:30:42.389Z,8.71
2019-04-28T01:31:42.359Z,8.71
2019-04-28T01:32:42.339Z,8.71
2019-04-28T01:33:42.329Z,8.73
2019-04-28T01:34:42.336Z,8.75
2019-04-28T01:35:42.329Z,8.69
2019-04-28T01:36:42.338Z,8.62
2019-04-28T01:37:42.288Z,8.55
2019-04-28T01:38:42.278Z,8.57
2019-04-28T01:39:42.269Z,8.57
2019-04-28T01:40:42.266Z,8.53
2019-04-28T01:41:42.256Z,8.51
2019-04-28T01:42:42.618Z,8.51
2019-04-28T01:43:42.227Z,8.53
2019-04-28T01:44:42.217Z,8.57
2019-04-28T01:45:42.217Z,8.58
2019-04-28T01:46:42.209Z,8.62
2019-04-28T01:47:42.185Z,8.65
2019-04-28T01:48:42.235Z,8.71
2019-04-28T01:49:42.165Z,8.71
2019-04-28T01:50:42.157Z,8.73
2019-04-28T01:51:42.138Z,8.72
2019-04-28T01:52:42.126Z,8.71
2019-04-28T01:53:42.117Z,8.71
2019-04-28T01:54:42.467Z,8.68
2019-04-28T01:55:42.096Z,8.66
2019-04-28T01:56:42.098Z,8.66
2019-04-28T01:57:42.084Z,8.65
2019-04-28T01:58:42.075Z,8.63
2019-04-28T01:59:42.062Z,8.60
2019-04-28T02:02:15.487Z,8.65
2019-04-28T02:03:15.406Z,8.63
2019-04-28T02:04:15.395Z,8.63
2019-04-28T02:05:15.385Z,8.66
2019-04-28T02:06:15.854Z,8.73
2019-04-28T02:07:15.367Z,8.78
2019-04-28T02:08:15.385Z,8.78
2019-04-28T02:09:15.346Z,8.75
2019-04-28T02:10:15.329Z,8.69
2019-04-28T02:11:15.330Z,8.69
2019-04-28T02:12:15.304Z,8.69
2019-04-28T02:13:15.302Z,8.72
2019-04-28T02:14:15.335Z,8.75
2019-04-28T02:15:15.275Z,8.76
2019-04-28T02:16:15.283Z,8.83
2019-04-28T02:17:15.253Z,8.83
2019-04-28T02:18:15.524Z,8.86
2019-04-28T02:19:15.244Z,8.88
2019-04-28T02:20:15.694Z,8.87
2019-04-28T02:21:15.212Z,8.88
2019-04-28T02:22:15.204Z,8.90
2019-04-28T02:23:15.191Z,8.88
2019-04-28T02:24:15.183Z,8.90
2019-04-28T02:25:15.174Z,8.90
2019-04-28T02:26:15.222Z,8.91
2019-04-28T02:27:15.149Z,8.94
2019-04-28T02:28:15.150Z,8.99
2019-04-28T02:29:15.132Z,9.02
2019-04-28T02:30:15.413Z,9.04
2019-04-28T02:31:15.193Z,9.09
2019-04-28T02:32:15.261Z,9.09
2019-04-28T02:33:15.098Z,9.09
2019-04-28T02:34:15.072Z,9.09
2019-04-28T02:35:15.072Z,9.04
2019-04-28T02:36:15.053Z,8.99
2019-04-28T02:37:15.323Z,8.93
2019-04-28T02:38:15.533Z,8.90
2019-04-28T02:39:15.038Z,8.88
2019-04-28T02:40:15.009Z,8.88
2019-04-28T02:41:14.999Z,8.87
2019-04-28T02:42:14.989Z,8.88
2019-04-28T02:43:14.997Z,8.87
2019-04-28T02:44:15.302Z,8.86
2019-04-28T02:45:14.961Z,8.86
2019-04-28T02:46:14.951Z,8.84
2019-04-28T02:47:14.932Z,8.76
2019-04-28T02:48:14.934Z,8.75
2019-04-28T02:49:14.911Z,8.75
2019-04-28T02:50:14.961Z,8.76
2019-04-28T02:51:15.199Z,8.79
2019-04-28T02:52:14.880Z,8.83
2019-04-28T02:53:14.877Z,8.86
2019-04-28T02:54:14.864Z,8.88
2019-04-28T02:55:14.850Z,8.93
2019-04-28T02:56:14.901Z,8.90
2019-04-28T02:57:14.829Z,8.88
2019-04-28T02:58:15.098Z,8.88
2019-04-28T02:59:14.806Z,8.90
2019-04-28T03:00:14.797Z,8.84
2019-04-28T03:01:22.801Z,8.83
2019-04-28T03:02:15.847Z,8.81
2019-04-28T03:03:14.759Z,8.84
2019-04-28T03:04:14.751Z,8.88
2019-04-28T03:05:16.018Z,8.90
2019-04-28T03:06:14.739Z,8.90
2019-04-28T03:07:14.845Z,8.90
2019-04-28T03:08:14.759Z,8.90
2019-04-28T03:09:14.708Z,8.87
2019-04-28T03:10:14.689Z,8.90
2019-04-28T03:11:14.689Z,8.94
2019-04-28T03:12:14.958Z,8.96
2019-04-28T03:13:14.670Z,9.01
2019-04-28T03:14:15.167Z,9.06
2019-04-28T03:15:14.638Z,9.10
2019-04-28T03:16:14.640Z,9.13
2019-04-28T03:17:14.617Z,9.18
2019-04-28T03:18:14.598Z,9.25
2019-04-28T03:19:14.885Z,9.31
2019-04-28T03:20:14.646Z,9.35
2019-04-28T03:21:14.578Z,9.39
2019-04-28T03:22:14.570Z,9.39
2019-04-28T03:23:14.552Z,9.40
2019-04-28T03:24:14.537Z,9.42
2019-04-28T03:25:14.827Z,9.42
2019-04-28T03:26:14.567Z,9.46
2019-04-28T03:27:14.507Z,9.46
2019-04-28T03:28:14.504Z,9.43
2019-04-28T03:29:14.489Z,9.43
2019-04-28T03:30:14.476Z,9.43
2019-04-28T03:31:49.024Z,9.43
2019-04-28T03:32:32.739Z,9.43
2019-04-28T03:33:19.057Z,9.42
2019-04-28T03:34:15.460Z,9.38
2019-04-28T03:35:14.436Z,9.39
2019-04-28T03:36:15.699Z,9.39
2019-04-28T03:37:14.684Z,9.39
2019-04-28T03:38:14.433Z,9.39
2019-04-28T03:39:14.403Z,9.42
2019-04-28T03:40:14.374Z,9.43
2019-04-28T03:41:14.371Z,9.42
2019-04-28T03:42:14.365Z,9.43
2019-04-28T03:43:14.839Z,9.42
2019-04-28T03:44:14.372Z,9.45
2019-04-28T03:45:14.324Z,9.45
2019-04-28T03:46:14.313Z,9.42
2019-04-28T03:47:14.373Z,9.40
2019-04-28T03:48:14.316Z,9.42
2019-04-28T03:49:14.674Z,9.39
2019-04-28T03:50:14.622Z,9.40
2019-04-28T03:51:14.254Z,9.39
2019-04-28T03:52:14.243Z,9.38
2019-04-28T03:53:14.262Z,9.34
2019-04-28T03:54:14.226Z,9.34
2019-04-28T03:55:14.212Z,9.35
2019-04-28T03:56:14.263Z,9.40
2019-04-28T03:57:14.193Z,9.42
2019-04-28T03:58:14.181Z,9.43
2019-04-28T03:59:14.191Z,9.40
2019-04-28T04:00:14.172Z,9.42
2019-04-28T04:01:14.155Z,9.39
2019-04-28T04:02:14.179Z,9.32
2019-04-28T04:03:14.121Z,9.28
2019-04-28T04:04:14.116Z,9.28
2019-04-28T04:05:14.103Z,9.27
2019-04-28T04:06:14.103Z,9.24
2019-04-28T04:07:14.373Z,9.21
2019-04-28T04:08:14.832Z,9.23
2019-04-28T04:09:14.071Z,9.23
2019-04-28T04:10:14.065Z,9.23
2019-04-28T04:11:14.051Z,9.18
2019-04-28T04:12:14.040Z,9.13
2019-04-28T04:13:14.073Z,9.09
2019-04-28T04:14:14.343Z,9.10
2019-04-28T04:15:14.024Z,9.10
2019-04-28T04:16:13.999Z,9.16
2019-04-28T04:17:13.981Z,9.20
2019-04-28T04:18:13.980Z,9.21
2019-04-28T04:19:13.967Z,9.21
2019-04-28T04:20:14.016Z,9.24
2019-04-28T04:21:14.221Z,9.23
2019-04-28T04:22:13.930Z,9.23
2019-04-28T04:23:13.930Z,9.16
2019-04-28T04:24:13.932Z,9.15
2019-04-28T04:25:13.909Z,9.12
2019-04-28T04:26:13.990Z,9.09
2019-04-28T04:27:13.879Z,9.06
2019-04-28T04:28:14.167Z,9.04
2019-04-28T04:29:13.869Z,9.01
2019-04-28T04:30:13.851Z,9.02
2019-04-28T04:31:13.829Z,9.06
2019-04-28T04:32:22.948Z,9.10
2019-04-28T04:33:14.819Z,9.10
2019-04-28T04:34:13.807Z,9.04
2019-04-28T04:35:14.079Z,9.04
2019-04-28T04:36:13.778Z,9.01
2019-04-28T04:37:13.775Z,9.02
2019-04-28T04:38:13.848Z,9.06
2019-04-28T04:39:13.748Z,9.12
2019-04-28T04:40:13.737Z,9.15
2019-04-28T04:41:13.727Z,9.16
2019-04-28T04:42:13.998Z,9.18
2019-04-28T04:43:13.715Z,9.20
2019-04-28T04:44:14.186Z,9.24
2019-04-28T04:45:13.692Z,9.30
2019-04-28T04:46:14.237Z,9.35
2019-04-28T04:47:13.657Z,9.40
2019-04-28T04:48:13.657Z,9.43
2019-04-28T04:49:13.937Z,9.40
2019-04-28T04:50:13.696Z,9.35
2019-04-28T04:51:13.620Z,9.38
2019-04-28T04:52:13.616Z,9.35
2019-04-28T04:53:13.603Z,9.39
2019-04-28T04:54:13.597Z,9.40
2019-04-28T04:55:13.575Z,9.42
2019-04-28T04:56:13.936Z,9.43
2019-04-28T04:57:13.556Z,9.43
2019-04-28T04:58:13.555Z,9.40
2019-04-28T04:59:13.536Z,9.38
2019-04-28T05:00:13.526Z,9.32
2019-04-28T05:01:13.526Z,9.31
2019-04-28T05:02:26.493Z,9.28
2019-04-28T05:03:14.496Z,9.24
2019-04-28T05:04:13.547Z,9.20
2019-04-28T05:05:13.511Z,9.16
2019-04-28T05:06:13.472Z,9.16
2019-04-28T05:07:13.452Z,9.15
2019-04-28T05:08:15.510Z,9.20
2019-04-28T05:09:13.427Z,9.24
2019-04-28T05:10:13.427Z,9.25
2019-04-28T05:11:13.404Z,9.25
2019-04-28T05:12:13.402Z,9.16
2019-04-28T05:13:13.394Z,9.18
2019-04-28T05:14:13.440Z,9.20
2019-04-28T05:15:13.363Z,9.21
2019-04-28T05:16:13.370Z,9.23
2019-04-28T05:17:13.343Z,9.23
2019-04-28T05:18:13.351Z,9.28
2019-04-28T05:19:13.333Z,9.32
2019-04-28T05:20:14.332Z,9.38
2019-04-28T05:21:13.301Z,9.42
2019-04-28T05:22:13.297Z,9.42
2019-04-28T05:23:13.291Z,9.38
2019-04-28T05:24:15.874Z,9.38
2019-04-28T05:25:13.273Z,9.35
2019-04-28T05:26:13.303Z,9.34
2019-04-28T05:27:13.241Z,9.32
2019-04-28T05:28:13.229Z,9.30
2019-04-28T05:29:13.212Z,9.24
2019-04-28T05:30:14.081Z,9.24
2019-04-28T05:31:20.006Z,9.28
2019-04-28T05:32:14.248Z,9.34
2019-04-28T05:33:13.182Z,9.31
2019-04-28T05:34:13.190Z,9.32
2019-04-28T05:35:13.151Z,9.34
2019-04-28T05:36:13.157Z,9.38
2019-04-28T05:37:13.145Z,9.42
2019-04-28T05:38:13.471Z,9.46
2019-04-28T05:39:13.120Z,9.43
2019-04-28T05:40:13.111Z,9.42
2019-04-28T05:41:13.129Z,9.43
2019-04-28T05:42:13.097Z,9.43
2019-04-28T05:43:13.080Z,9.49
2019-04-28T05:44:13.089Z,9.52
2019-04-28T05:45:13.348Z,9.48
2019-04-28T05:46:13.048Z,9.48
2019-04-28T05:47:13.039Z,9.46
2019-04-28T05:48:13.009Z,9.52
2019-04-28T05:49:13.008Z,9.56
2019-04-28T05:50:13.039Z,9.52
2019-04-28T05:51:12.988Z,9.46
2019-04-28T05:52:13.427Z,9.49
2019-04-28T05:53:12.968Z,9.53
2019-04-28T05:54:12.949Z,9.60
2019-04-28T05:55:12.962Z,9.70
2019-04-28T05:56:13.008Z,9.70
2019-04-28T05:57:12.927Z,9.68
2019-04-28T05:58:12.908Z,9.71
2019-04-28T05:59:13.187Z,9.70
2019-04-28T06:00:12.895Z,9.71
2019-04-28T06:01:12.898Z,9.75
2019-04-28T06:02:12.908Z,9.75
2019-04-28T06:03:12.858Z,9.73
2019-04-28T06:04:12.866Z,9.73
2019-04-28T06:05:12.837Z,9.71
2019-04-28T06:06:13.107Z,9.68
2019-04-28T06:07:12.859Z,9.70
2019-04-28T06:08:12.847Z,9.76
2019-04-28T06:09:12.806Z,9.83
2019-04-28T06:10:12.786Z,9.86
2019-04-28T06:11:12.788Z,9.85
2019-04-28T06:12:12.765Z,9.88
2019-04-28T06:13:13.049Z,9.91
2019-04-28T06:14:12.826Z,9.91
2019-04-28T06:15:12.736Z,9.91
2019-04-28T06:16:12.742Z,9.88
2019-04-28T06:17:12.725Z,9.89
2019-04-28T06:18:12.734Z,9.89
2019-04-28T06:19:12.705Z,9.89
2019-04-28T06:20:13.216Z,9.91
2019-04-28T06:21:12.767Z,9.96
2019-04-28T06:22:12.655Z,10.00
2019-04-28T06:23:12.646Z,10.01
2019-04-28T06:24:12.635Z,9.97
2019-04-28T06:25:12.625Z,10.03
2019-04-28T06:26:12.685Z,10.10
2019-04-28T06:27:12.915Z,10.18
2019-04-28T06:28:12.605Z,10.17
2019-04-28T06:29:12.597Z,10.21
2019-04-28T06:30:12.574Z,10.24
2019-04-28T06:31:12.564Z,10.17
2019-04-28T06:32:12.594Z,10.17
2019-04-28T06:33:12.543Z,10.17
2019-04-28T06:34:12.824Z,10.14
2019-04-28T06:35:12.526Z,10.14
2019-04-28T06:36:12.515Z,10.22
2019-04-28T06:37:12.511Z,10.28
2019-04-28T06:38:12.556Z,10.32
2019-04-28T06:39:12.491Z,10.28
2019-04-28T06:40:12.493Z,10.28
2019-04-28T06:41:12.463Z,10.32
2019-04-28T06:42:12.455Z,10.26
2019-04-28T06:43:12.444Z,10.34
2019-04-28T06:44:12.480Z,10.43
2019-04-28T06:45:12.423Z,10.44
2019-04-28T06:46:12.696Z,10.37
2019-04-28T06:47:12.408Z,10.44
2019-04-28T06:48:12.383Z,10.53
2019-04-28T06:49:12.372Z,10.43
2019-04-28T06:50:12.487Z,10.53
2019-04-28T06:51:12.363Z,10.60
2019-04-28T06:52:12.364Z,10.56
2019-04-28T06:53:12.833Z,10.68
2019-04-28T06:54:12.331Z,10.88
2019-04-28T06:55:12.312Z,10.92
2019-04-28T06:56:12.353Z,10.92
2019-04-28T06:57:12.311Z,10.94
2019-04-28T06:58:12.600Z,10.84
2019-04-28T06:59:12.279Z,10.76
2019-04-28T07:00:12.282Z,10.81
2019-04-28T07:01:12.251Z,10.84
2019-04-28T07:02:12.472Z,10.88
2019-04-28T07:03:22.696Z,10.76
2019-04-28T07:04:13.220Z,10.78
2019-04-28T07:05:12.222Z,10.81
2019-04-28T07:06:12.218Z,10.89
2019-04-28T07:07:12.198Z,10.80
2019-04-28T07:08:13.904Z,10.71
2019-04-28T07:09:12.194Z,10.71
2019-04-28T07:10:12.458Z,10.77
2019-04-28T07:11:12.159Z,10.78
2019-04-28T07:12:12.148Z,10.76
2019-04-28T07:13:12.140Z,10.84
2019-04-28T07:14:12.179Z,10.99
2019-04-28T07:15:12.109Z,10.94
2019-04-28T07:16:12.100Z,10.88
2019-04-28T07:17:12.570Z,10.86
2019-04-28T07:18:12.077Z,10.80
2019-04-28T07:19:12.068Z,10.83
2019-04-28T07:20:12.287Z,10.80
2019-04-28T07:21:12.047Z,10.77
2019-04-28T07:22:12.120Z,10.73
2019-04-28T07:23:12.020Z,10.73
2019-04-28T07:24:12.328Z,10.74
2019-04-28T07:25:12.008Z,10.91
2019-04-28T07:26:12.062Z,10.96
2019-04-28T07:27:11.985Z,11.09
2019-04-28T07:28:11.968Z,11.10
2019-04-28T07:29:11.973Z,11.14
2019-04-28T07:30:11.952Z,11.11
2019-04-28T07:31:12.288Z,11.19
2019-04-28T07:32:12.006Z,11.44
2019-04-28T07:33:11.925Z,11.64
2019-04-28T07:34:11.935Z,11.82
2019-04-28T07:35:11.897Z,11.80
2019-04-28T07:36:12.227Z,11.85
2019-04-28T07:37:12.154Z,11.82
2019-04-28T07:38:12.557Z,11.94
2019-04-28T07:39:11.987Z,11.83
2019-04-28T07:40:11.957Z,11.67
2019-04-28T07:41:12.007Z,11.56
2019-04-28T07:42:11.836Z,11.56
2019-04-28T07:43:11.807Z,11.53
2019-04-28T07:44:12.137Z,11.47
2019-04-28T07:45:12.079Z,11.47
2019-04-28T07:46:11.776Z,11.54
2019-04-28T07:47:11.769Z,11.64
2019-04-28T07:48:11.757Z,11.77
2019-04-28T07:49:11.748Z,11.74
2019-04-28T07:50:11.794Z,11.71
2019-04-28T07:51:11.726Z,11.68
2019-04-28T07:52:12.136Z,11.68
2019-04-28T07:53:11.756Z,11.77
2019-04-28T07:54:11.716Z,11.86
2019-04-28T07:55:11.698Z,12.02
2019-04-28T07:56:11.726Z,12.20
2019-04-28T07:57:11.665Z,12.38
2019-04-28T07:58:11.685Z,12.66
2019-04-28T07:59:11.946Z,12.57
2019-04-28T08:00:11.638Z,12.48
2019-04-28T08:01:11.616Z,12.66
2019-04-28T08:02:11.675Z,12.88
2019-04-28T08:03:11.665Z,12.95
2019-04-28T08:04:11.595Z,12.79
2019-04-28T08:05:11.606Z,12.45
2019-04-28T08:06:11.977Z,12.48
2019-04-28T08:07:11.565Z,12.29
2019-04-28T08:08:11.623Z,12.37
2019-04-28T08:09:11.535Z,12.44
2019-04-28T08:10:11.525Z,12.46
2019-04-28T08:11:11.514Z,12.42
2019-04-28T08:12:11.504Z,12.26
2019-04-28T08:13:11.492Z,12.20
2019-04-28T08:14:11.532Z,12.16
2019-04-28T08:15:11.475Z,12.27
2019-04-28T08:16:11.462Z,12.69
2019-04-28T08:17:11.468Z,12.93
2019-04-28T08:18:11.723Z,12.56
2019-04-28T08:19:11.426Z,12.64
2019-04-28T08:20:12.011Z,12.39
2019-04-28T08:21:11.417Z,12.46
2019-04-28T08:22:11.522Z,12.81
2019-04-28T08:23:11.394Z,13.17
2019-04-28T08:24:11.395Z,13.61
2019-04-28T08:25:11.383Z,13.81
2019-04-28T08:26:11.393Z,14.02
2019-04-28T08:27:11.343Z,14.14
2019-04-28T08:28:11.343Z,14.93
2019-04-28T08:29:11.345Z,15.23
2019-04-28T08:30:11.694Z,15.11
2019-04-28T08:31:11.303Z,14.34
2019-04-28T08:32:11.341Z,13.73
2019-04-28T08:33:11.283Z,13.62
2019-04-28T08:34:11.285Z,13.40
2019-04-28T08:35:11.283Z,13.29
2019-04-28T08:36:11.539Z,13.69
2019-04-28T08:37:11.246Z,13.51
2019-04-28T08:38:11.304Z,14.09
2019-04-28T08:39:11.233Z,14.60
2019-04-28T08:40:11.211Z,14.24
2019-04-28T08:41:11.204Z,14.04
2019-04-28T08:42:11.687Z,13.61
2019-04-28T08:43:11.214Z,13.24
2019-04-28T08:44:11.223Z,13.11
2019-04-28T08:45:11.171Z,13.25
2019-04-28T08:46:11.160Z,13.11
2019-04-28T08:47:11.142Z,12.89
2019-04-28T08:48:11.143Z,12.77
2019-04-28T08:49:11.140Z,13.32
2019-04-28T08:50:11.169Z,13.83
2019-04-28T08:51:11.122Z,14.71
2019-04-28T08:52:11.112Z,15.31
2019-04-28T08:53:13.890Z,14.80
2019-04-28T08:54:11.514Z,14.42
2019-04-28T08:55:11.062Z,13.98
2019-04-28T08:56:11.102Z,13.69
2019-04-28T08:57:11.033Z,13.32
2019-04-28T08:58:11.023Z,12.96
2019-04-28T08:59:11.012Z,12.81
2019-04-28T09:00:11.021Z,12.59
2019-04-28T09:01:11.282Z,12.38
2019-04-28T09:02:11.039Z,12.37
2019-04-28T09:03:10.982Z,12.30
2019-04-28T09:04:15.713Z,12.26
2019-04-28T09:05:11.948Z,12.24
2019-04-28T09:06:10.944Z,12.34
2019-04-28T09:07:10.934Z,12.42
2019-04-28T09:08:11.348Z,12.54
2019-04-28T09:09:10.921Z,12.51
2019-04-28T09:10:10.902Z,12.79
2019-04-28T09:11:10.901Z,14.56
2019-04-28T09:12:10.880Z,16.52
2019-04-28T09:13:10.871Z,18.12
2019-04-28T09:14:10.989Z,17.48
2019-04-28T09:15:11.282Z,16.06
2019-04-28T09:16:10.863Z,15.31
2019-04-28T09:17:10.871Z,14.61
2019-04-28T09:18:10.826Z,14.46
2019-04-28T09:19:10.801Z,14.93
2019-04-28T09:20:10.835Z,15.39
2019-04-28T09:21:10.800Z,14.88
2019-04-28T09:22:11.086Z,15.39
2019-04-28T09:23:10.760Z,17.03
2019-04-28T09:24:10.762Z,17.95
2019-04-28T09:25:10.751Z,19.11
2019-04-28T09:26:10.762Z,19.10
2019-04-28T09:27:10.791Z,18.92
2019-04-28T09:28:10.710Z,19.05
2019-04-28T09:29:10.987Z,19.50
2019-04-28T09:30:10.703Z,17.82
2019-04-28T09:31:10.692Z,16.95
2019-04-28T09:32:10.741Z,15.84
2019-04-28T09:33:10.692Z,15.17
2019-04-28T09:34:10.661Z,14.21
2019-04-28T09:35:10.641Z,13.71
2019-04-28T09:36:10.912Z,13.67
2019-04-28T09:37:10.612Z,13.61
2019-04-28T09:38:10.663Z,13.76
2019-04-28T09:39:10.598Z,15.46
2019-04-28T09:40:10.588Z,17.29
2019-04-28T09:41:10.580Z,18.40
2019-04-28T09:42:10.560Z,18.84
2019-04-28T09:43:10.557Z,17.50
2019-04-28T09:44:10.583Z,16.14
2019-04-28T09:45:10.531Z,16.80
2019-04-28T09:46:10.521Z,18.06
2019-04-28T09:47:10.519Z,18.95
2019-04-28T09:48:10.904Z,20.15
2019-04-28T09:49:10.491Z,20.96
2019-04-28T09:50:10.551Z,21.56
2019-04-28T09:51:10.479Z,20.38
2019-04-28T09:52:10.502Z,18.83
2019-04-28T09:53:10.450Z,17.38
2019-04-28T09:54:10.880Z,16.35
2019-04-28T09:55:10.446Z,15.64
2019-04-28T09:56:10.467Z,15.86
2019-04-28T09:57:10.417Z,16.60
2019-04-28T09:58:10.423Z,16.71
2019-04-28T09:59:10.401Z,15.97
2019-04-28T10:00:10.862Z,15.26
2019-04-28T10:01:10.371Z,15.17
2019-04-28T10:02:10.664Z,15.06
2019-04-28T10:03:10.360Z,14.81
2019-04-28T10:04:10.349Z,14.47
2019-04-28T10:05:10.321Z,14.34
2019-04-28T10:06:10.311Z,14.31
2019-04-28T10:07:10.799Z,14.20
2019-04-28T10:08:10.408Z,14.10
2019-04-28T10:09:10.570Z,13.96
2019-04-28T10:10:10.295Z,13.87
2019-04-28T10:11:10.453Z,13.58
2019-04-28T10:12:10.654Z,13.49
2019-04-28T10:13:10.251Z,13.44
2019-04-28T10:14:10.300Z,13.46
2019-04-28T10:15:10.306Z,13.59
2019-04-28T10:16:10.211Z,13.70
2019-04-28T10:17:10.273Z,13.81
2019-04-28T10:18:10.187Z,13.91
2019-04-28T10:19:10.182Z,14.06
2019-04-28T10:20:10.256Z,14.10
2019-04-28T10:21:10.161Z,14.01
2019-04-28T10:22:10.166Z,13.99
2019-04-28T10:23:10.351Z,14.25
2019-04-28T10:24:10.658Z,14.50
2019-04-28T10:25:10.290Z,14.68
2019-04-28T10:26:10.149Z,14.94
2019-04-28T10:27:10.100Z,15.78
2019-04-28T10:28:10.110Z,16.11
2019-04-28T10:29:10.066Z,15.86
2019-04-28T10:30:10.060Z,16.18
2019-04-28T10:31:13.317Z,16.70
2019-04-28T10:32:10.069Z,18.92
2019-04-28T10:33:10.036Z,19.36
2019-04-28T10:34:10.013Z,20.09
2019-04-28T10:35:10.011Z,21.29
2019-04-28T10:36:10.000Z,22.10
2019-04-28T10:37:09.990Z,21.88
2019-04-28T10:38:10.505Z,21.90
2019-04-28T10:39:10.010Z,20.09
2019-04-28T10:40:09.959Z,18.46
2019-04-28T10:41:09.981Z,17.08
2019-04-28T10:42:09.928Z,16.07
2019-04-28T10:43:09.941Z,15.27
2019-04-28T10:44:09.991Z,14.90
2019-04-28T10:45:10.250Z,14.72
2019-04-28T10:46:09.891Z,14.44
2019-04-28T10:47:09.881Z,14.06
2019-04-28T10:48:10.120Z,13.89
2019-04-28T10:49:09.861Z,13.83
2019-04-28T10:50:09.881Z,13.83
2019-04-28T10:51:09.888Z,13.77
2019-04-28T10:52:10.110Z,13.61
2019-04-28T10:53:09.812Z,13.55
2019-04-28T10:54:09.810Z,13.58
2019-04-28T10:55:09.804Z,13.47
2019-04-28T10:56:09.840Z,13.52
2019-04-28T10:57:09.784Z,13.54
2019-04-28T10:58:09.763Z,13.55
2019-04-28T10:59:11.101Z,13.59
2019-04-28T11:00:09.738Z,13.59
2019-04-28T11:01:09.730Z,13.52
2019-04-28T11:02:09.838Z,13.38
2019-04-28T11:03:09.718Z,13.29
2019-04-28T11:04:09.703Z,13.33
2019-04-28T11:05:09.691Z,13.43
2019-04-28T11:06:12.553Z,13.44
2019-04-28T11:07:09.670Z,13.27
2019-04-28T11:08:09.692Z,13.04
2019-04-28T11:09:09.661Z,12.99
2019-04-28T11:10:09.630Z,12.92
2019-04-28T11:11:09.634Z,12.71
2019-04-28T11:12:10.012Z,12.45
2019-04-28T11:13:09.902Z,12.39
2019-04-28T11:14:09.652Z,12.31
2019-04-28T11:15:09.591Z,12.09
2019-04-28T11:16:09.569Z,11.97
2019-04-28T11:17:09.560Z,11.86
2019-04-28T11:18:09.557Z,11.78
2019-04-28T11:19:09.549Z,11.82
2019-04-28T11:20:10.060Z,11.77
2019-04-28T11:21:09.547Z,11.61
2019-04-28T11:22:10.328Z,11.39
2019-04-28T11:23:10.168Z,11.10
2019-04-28T11:24:09.767Z,10.60
2019-04-28T11:25:10.090Z,10.04
2019-04-28T11:26:10.019Z,9.67
2019-04-28T11:27:09.798Z,9.43
2019-04-28T11:28:09.549Z,9.20
2019-04-28T11:29:09.608Z,9.04
2019-04-28T11:30:09.512Z,8.97
2019-04-28T11:31:10.054Z,8.88
2019-04-28T11:32:09.448Z,8.91
2019-04-28T11:33:09.398Z,8.90
2019-04-28T11:34:09.385Z,8.83
2019-04-28T11:35:20.986Z,8.84
2019-04-28T11:36:10.390Z,8.88
2019-04-28T11:37:09.640Z,8.99
2019-04-28T11:38:09.389Z,9.02
2019-04-28T11:39:09.328Z,9.04
2019-04-28T11:40:09.338Z,9.12
2019-04-28T11:41:11.578Z,9.27
2019-04-28T11:42:09.297Z,9.46
2019-04-28T11:43:09.327Z,9.57
2019-04-28T11:44:09.337Z,9.46
2019-04-28T11:45:09.266Z,9.40
2019-04-28T11:46:09.257Z,9.34
2019-04-28T11:47:09.247Z,9.30
2019-04-28T11:48:09.254Z,9.34
2019-04-28T11:49:09.541Z,9.32
2019-04-28T11:50:09.267Z,9.40
2019-04-28T11:51:09.207Z,9.42
2019-04-28T11:52:09.196Z,9.43
2019-04-28T11:53:09.186Z,9.53
2019-04-28T11:54:09.185Z,9.58
2019-04-28T11:55:09.156Z,9.71
2019-04-28T11:56:09.925Z,9.89
2019-04-28T11:57:09.163Z,10.01
2019-04-28T11:58:09.161Z,10.12
2019-04-28T11:59:09.124Z,10.34
2019-04-28T12:00:09.116Z,10.59
2019-04-28T12:01:09.106Z,10.84
2019-04-28T12:02:09.124Z,11.10
2019-04-28T12:03:09.095Z,11.36
2019-04-28T12:04:09.072Z,11.71
2019-04-28T12:05:09.065Z,12.02
2019-04-28T12:06:09.048Z,12.26
2019-04-28T12:07:09.322Z,12.60
2019-04-28T12:08:09.085Z,12.93
2019-04-28T12:09:09.017Z,13.43
2019-04-28T12:10:09.005Z,14.09
2019-04-28T12:11:09.015Z,14.71
2019-04-28T12:12:09.017Z,15.36
2019-04-28T12:13:08.995Z,15.75
2019-04-28T12:14:09.425Z,16.37
2019-04-28T12:15:08.964Z,16.42
2019-04-28T12:16:08.966Z,16.56
2019-04-28T12:17:08.935Z,16.74
2019-04-28T12:18:09.228Z,16.60
2019-04-28T12:19:08.940Z,16.92
2019-04-28T12:20:08.976Z,17.14
2019-04-28T12:21:09.265Z,17.23
2019-04-28T12:22:08.897Z,17.73
2019-04-28T12:23:09.813Z,18.86
2019-04-28T12:24:08.868Z,20.10
2019-04-28T12:25:08.895Z,21.46
2019-04-28T12:26:08.874Z,22.41
2019-04-28T12:27:08.853Z,23.20
2019-04-28T12:28:09.277Z,23.55
2019-04-28T12:29:08.814Z,23.35
2019-04-28T12:30:08.804Z,23.67
2019-04-28T12:31:08.815Z,24.31
2019-04-28T12:32:08.982Z,24.68
2019-04-28T12:33:08.787Z,25.34
2019-04-28T12:34:08.755Z,25.50
2019-04-28T12:35:09.077Z,25.06
2019-04-28T12:36:09.041Z,25.00
2019-04-28T12:37:08.736Z,25.15
2019-04-28T12:38:08.764Z,25.59
2019-04-28T12:39:08.706Z,25.50
2019-04-28T12:40:08.695Z,25.39
2019-04-28T12:41:08.685Z,25.80
2019-04-28T12:42:08.956Z,26.17
2019-04-28T12:43:08.670Z,26.32
2019-04-28T12:44:08.715Z,26.42
2019-04-28T12:45:08.646Z,26.80
2019-04-28T12:46:08.636Z,26.42
2019-04-28T12:47:08.636Z,25.86
2019-04-28T12:48:08.616Z,25.61
2019-04-28T12:49:08.680Z,25.27
2019-04-28T12:50:08.657Z,24.67
2019-04-28T12:51:08.598Z,24.61
2019-04-28T12:52:08.577Z,24.47
2019-04-28T12:53:08.558Z,23.26
2019-04-28T12:54:08.864Z,23.50
2019-04-28T12:55:08.542Z,24.34
2019-04-28T12:56:08.595Z,25.13
2019-04-28T12:57:08.546Z,25.57
2019-04-28T12:58:08.535Z,25.93
2019-04-28T12:59:08.760Z,26.18
2019-04-28T13:00:08.581Z,26.47
2019-04-28T13:01:08.619Z,26.67
2019-04-28T13:02:08.519Z,26.89
2019-04-28T13:03:08.479Z,27.31
2019-04-28T13:04:08.467Z,27.51
2019-04-28T13:05:08.476Z,25.71
2019-04-28T13:06:08.428Z,24.35
2019-04-28T13:07:08.611Z,22.78
2019-04-28T13:08:09.059Z,21.66